Time;durP1;ratioP1;P1;durP2;ratioP2;P2;SDS_P1;SDS_P2;PMS_P1;PMS_P2;Temp;Humidity;BMP_temperature;BMP_pressure;BME280_temperature;BME280_humidity;BME280_pressure;Samples;Min_cycle;Max_cycle;Signal;HPM_P1;HPM_P2
2021/08/11 00:00:53;;;;;;;10.53;4.50;;;16.10;99.90;;;;;;4406423;28;658167;-70
2021/08/11 00:03:40;;;;;;;14.77;4.40;;;16.00;99.90;;;;;;4389736;28;658696;-70
2021/08/11 00:06:28;;;;;;;11.40;4.67;;;16.00;99.90;;;;;;4393370;28;658021;-70
2021/08/11 00:09:16;;;;;;;10.43;4.60;;;16.10;99.90;;;;;;4403160;28;658441;-70
2021/08/11 00:12:04;;;;;;;9.50;4.40;;;16.00;99.90;;;;;;4391103;28;657995;-70
2021/08/11 00:14:52;;;;;;;9.30;4.40;;;15.90;99.90;;;;;;4408440;28;656344;-70
2021/08/11 00:17:41;;;;;;;7.80;4.30;;;15.90;99.90;;;;;;4382561;28;657000;-70
2021/08/11 00:20:28;;;;;;;9.33;3.93;;;15.90;99.90;;;;;;4394191;28;656869;-70
2021/08/11 00:23:16;;;;;;;9.63;4.57;;;16.00;99.90;;;;;;4414737;28;657339;-70
2021/08/11 00:26:03;;;;;;;11.23;5.00;;;16.10;99.90;;;;;;4421431;28;656678;-70
2021/08/11 00:28:51;;;;;;;7.50;5.00;;;16.10;99.90;;;;;;4432395;28;658385;-70
2021/08/11 00:31:38;;;;;;;12.13;5.77;;;16.10;99.90;;;;;;4412790;28;656268;-70
2021/08/11 00:34:27;;;;;;;12.03;4.40;;;16.20;99.90;;;;;;4440231;28;658373;-70
2021/08/11 00:37:15;;;;;;;9.27;4.47;;;16.10;99.90;;;;;;4414425;28;658424;-70
2021/08/11 00:40:04;;;;;;;10.27;4.37;;;16.10;99.90;;;;;;4439057;28;656524;-70
2021/08/11 00:42:51;;;;;;;10.87;4.50;;;16.10;99.90;;;;;;4434881;28;658008;-70
2021/08/11 00:45:39;;;;;;;16.87;7.50;;;16.10;99.90;;;;;;4425277;28;657388;-70
2021/08/11 00:48:27;;;;;;;13.00;7.40;;;16.10;99.90;;;;;;4429752;28;658164;-70
2021/08/11 00:51:16;;;;;;;11.53;6.17;;;16.20;99.90;;;;;;4426465;28;658113;-70
2021/08/11 00:54:05;;;;;;;12.70;7.77;;;16.30;99.90;;;;;;4421220;28;657470;-70
2021/08/11 00:56:53;;;;;;;17.23;7.97;;;16.40;99.90;;;;;;4428796;28;657503;-70
2021/08/11 00:59:41;;;;;;;12.23;5.33;;;16.50;99.90;;;;;;4433326;28;659185;-70
2021/08/11 01:02:28;;;;;;;10.93;6.13;;;16.50;99.90;;;;;;4417025;28;657799;-70
2021/08/11 01:05:16;;;;;;;15.27;6.10;;;16.40;99.90;;;;;;4437801;28;658358;-70
2021/08/11 01:08:06;;;;;;;11.50;6.30;;;16.40;99.90;;;;;;4412861;28;657792;-70
2021/08/11 01:10:54;;;;;;;11.67;5.70;;;16.30;99.90;;;;;;4410575;28;657517;-70
2021/08/11 01:13:42;;;;;;;16.10;6.03;;;16.40;99.90;;;;;;4435525;28;658292;-70
2021/08/11 01:16:30;;;;;;;17.17;5.97;;;16.40;99.90;;;;;;4405426;28;658540;-70
2021/08/11 01:19:20;;;;;;;14.77;5.93;;;16.30;99.90;;;;;;4442301;28;657634;-70
2021/08/11 01:22:11;;;;;;;11.23;6.57;;;16.40;99.90;;;;;;4443209;28;658063;-70
2021/08/11 01:25:03;;;;;;;11.70;5.57;;;16.40;99.90;;;;;;4418563;28;657774;-70
2021/08/11 01:28:08;;;;;;;14.73;6.13;;;16.30;99.90;;;;;;4405538;28;658959;-70
2021/08/11 01:30:58;;;;;;;11.30;6.03;;;16.20;99.90;;;;;;4418192;28;658365;-70
2021/08/11 01:34:03;;;;;;;12.93;6.73;;;16.10;99.90;;;;;;4419928;28;658775;-70
2021/08/11 01:36:52;;;;;;;13.80;6.03;;;16.10;99.90;;;;;;4409459;28;658399;-70
2021/08/11 01:39:43;;;;;;;16.40;6.17;;;16.00;99.90;;;;;;4412171;28;658515;-70
2021/08/11 01:42:32;;;;;;;10.77;6.00;;;16.00;99.90;;;;;;4405862;28;658651;-70
2021/08/11 01:45:24;;;;;;;9.77;5.83;;;15.90;99.90;;;;;;4416582;28;657522;-70
2021/08/11 01:48:14;;;;;;;14.80;6.13;;;15.90;99.90;;;;;;4409597;28;657235;-70
2021/08/11 01:51:03;;;;;;;9.90;5.87;;;15.90;99.90;;;;;;4415073;28;658424;-70
2021/08/11 01:53:50;;;;;;;12.30;5.90;;;15.80;99.90;;;;;;4416666;28;658715;-70
2021/08/11 01:56:41;;;;;;;12.57;6.43;;;15.80;99.90;;;;;;4411218;28;657635;-70
2021/08/11 01:59:28;;;;;;;10.50;5.80;;;15.70;99.90;;;;;;4420750;28;657557;-70
2021/08/11 02:02:16;;;;;;;10.23;5.60;;;15.70;99.90;;;;;;4442487;28;658124;-70
2021/08/11 02:05:04;;;;;;;11.33;5.27;;;15.70;99.90;;;;;;4416469;28;657745;-70
2021/08/11 02:07:53;;;;;;;12.17;5.90;;;15.60;99.90;;;;;;4440584;28;658184;-70
2021/08/11 02:10:42;;;;;;;14.07;5.50;;;15.50;99.90;;;;;;4416713;28;659697;-70
2021/08/11 02:13:29;;;;;;;10.30;5.97;;;15.50;99.90;;;;;;4422303;28;658830;-70
2021/08/11 02:16:18;;;;;;;12.83;6.33;;;15.40;99.90;;;;;;4447723;28;657741;-70
2021/08/11 02:19:06;;;;;;;12.30;6.33;;;15.40;99.90;;;;;;4408740;28;658022;-70
2021/08/11 02:21:53;;;;;;;16.17;5.87;;;15.40;99.90;;;;;;4411714;28;657650;-70
2021/08/11 02:24:42;;;;;;;13.82;5.78;;;15.30;99.90;;;;;;4443031;28;657249;-70
2021/08/11 02:27:32;;;;;;;10.00;5.93;;;15.20;99.90;;;;;;4419075;28;658375;-70
2021/08/11 02:30:22;;;;;;;12.43;6.70;;;15.20;99.90;;;;;;4408246;28;658041;-70
2021/08/11 02:33:12;;;;;;;10.93;6.23;;;15.20;99.90;;;;;;4418554;28;657485;-70
2021/08/11 02:36:02;;;;;;;11.23;5.67;;;15.20;99.90;;;;;;4423359;28;659313;-70
2021/08/11 02:38:50;;;;;;;13.37;5.80;;;15.10;99.90;;;;;;4418047;28;657730;-70
2021/08/11 02:41:42;;;;;;;15.37;6.07;;;15.10;99.90;;;;;;4429289;28;657414;-71
2021/08/11 02:44:32;;;;;;;10.33;5.93;;;15.00;99.90;;;;;;4411893;28;658223;-70
2021/08/11 02:47:20;;;;;;;11.93;5.70;;;14.90;99.90;;;;;;4416409;28;659150;-70
2021/08/11 02:50:08;;;;;;;11.43;5.90;;;14.90;99.90;;;;;;4432597;28;657479;-70
2021/08/11 02:52:56;;;;;;;10.43;5.67;;;14.90;99.90;;;;;;4407625;28;658151;-70
2021/08/11 02:55:43;;;;;;;12.30;5.83;;;14.90;99.90;;;;;;4415290;28;658312;-70
2021/08/11 02:58:32;;;;;;;11.70;6.07;;;14.90;99.90;;;;;;4442889;28;658155;-70
2021/08/11 03:01:20;;;;;;;8.77;5.20;;;14.90;99.90;;;;;;4420891;28;658883;-70
2021/08/11 03:04:08;;;;;;;10.10;5.07;;;14.80;99.90;;;;;;4431013;28;656331;-70
2021/08/11 03:06:55;;;;;;;9.17;5.03;;;14.80;99.90;;;;;;4420923;28;658337;-70
2021/08/11 03:09:43;;;;;;;12.87;7.37;;;14.80;99.90;;;;;;4438389;28;656847;-70
2021/08/11 03:12:31;;;;;;;10.88;6.07;;;14.90;99.90;;;;;;4430252;28;658945;-70
2021/08/11 03:15:20;;;;;;;14.60;6.40;;;14.90;99.90;;;;;;4411240;28;657947;-69
2021/08/11 03:18:08;;;;;;;12.93;5.53;;;15.00;99.90;;;;;;4434696;28;657988;-69
2021/08/11 03:20:56;;;;;;;11.57;6.30;;;14.90;99.90;;;;;;4450184;28;658758;-69
2021/08/11 03:24:02;;;;;;;9.73;6.17;;;14.80;99.90;;;;;;4423418;28;657497;-69
2021/08/11 03:26:50;;;;;;;9.83;5.50;;;14.80;99.90;;;;;;4425868;28;657339;-69
2021/08/11 03:29:37;;;;;;;11.37;5.17;;;14.70;99.90;;;;;;4432638;28;657558;-69
2021/08/11 03:32:26;;;;;;;11.10;5.23;;;14.60;99.90;;;;;;4408571;28;657583;-70
2021/08/11 03:35:14;;;;;;;15.27;5.13;;;14.60;99.90;;;;;;4427749;28;657824;-69
2021/08/11 03:38:01;;;;;;;10.40;5.07;;;14.60;99.90;;;;;;4430648;28;658643;-69
2021/08/11 03:40:49;;;;;;;11.33;5.73;;;14.60;99.90;;;;;;4411287;28;657500;-69
2021/08/11 03:43:37;;;;;;;8.93;5.57;;;14.60;99.90;;;;;;4428371;28;658058;-69
2021/08/11 03:46:24;;;;;;;11.23;6.40;;;14.60;99.90;;;;;;4412399;28;656785;-69
2021/08/11 03:49:13;;;;;;;11.67;6.00;;;14.60;99.90;;;;;;4417798;28;657380;-69
2021/08/11 03:52:01;;;;;;;14.40;6.70;;;14.60;99.90;;;;;;4403693;28;658289;-69
2021/08/11 03:54:48;;;;;;;12.20;6.03;;;14.60;99.90;;;;;;4423320;28;658203;-69
2021/08/11 03:57:36;;;;;;;8.33;5.63;;;14.60;99.90;;;;;;4432255;28;658214;-69
2021/08/11 04:00:24;;;;;;;11.63;5.63;;;14.60;99.90;;;;;;4425910;28;657142;-69
2021/08/11 04:03:12;;;;;;;9.07;5.77;;;14.70;99.90;;;;;;4439224;28;657356;-69
2021/08/11 04:06:01;;;;;;;10.30;6.37;;;14.70;99.90;;;;;;4426267;28;656381;-69
2021/08/11 04:08:48;;;;;;;20.10;8.97;;;14.80;99.90;;;;;;4428789;28;657630;-69
2021/08/11 04:11:36;;;;;;;17.87;10.07;;;14.90;99.90;;;;;;4433450;28;658400;-69
2021/08/11 04:14:23;;;;;;;18.33;9.70;;;15.00;99.90;;;;;;4420131;28;658936;-69
2021/08/11 04:17:12;;;;;;;22.50;9.10;;;15.10;99.90;;;;;;4440248;28;659071;-69
2021/08/11 04:19:59;;;;;;;17.53;9.30;;;15.20;99.90;;;;;;4414236;28;657784;-69
2021/08/11 04:22:48;;;;;;;26.50;11.17;;;15.30;99.90;;;;;;4432839;28;657712;-69
2021/08/11 04:25:39;;;;;;;17.07;9.73;;;15.40;99.90;;;;;;4415492;28;660018;-69
2021/08/11 04:28:27;;;;;;;21.07;11.80;;;15.50;99.90;;;;;;4397874;28;658440;-70
2021/08/11 04:31:15;;;;;;;24.70;12.07;;;15.70;99.90;;;;;;4404180;28;660182;-70
2021/08/11 04:34:02;;;;;;;18.10;11.00;;;15.80;99.90;;;;;;4415989;28;658596;-69
2021/08/11 04:36:50;;;;;;;21.10;11.63;;;15.80;99.90;;;;;;4391135;28;659304;-70
2021/08/11 04:39:39;;;;;;;24.43;12.57;;;15.90;99.90;;;;;;4413997;28;658424;-70
2021/08/11 04:42:26;;;;;;;23.80;13.70;;;16.00;99.90;;;;;;4395453;28;658718;-70
2021/08/11 04:45:14;;;;;;;23.63;12.23;;;16.00;99.90;;;;;;4395895;28;659181;-70
2021/08/11 04:48:01;;;;;;;26.13;11.90;;;16.10;99.90;;;;;;4417371;28;658927;-70
2021/08/11 04:50:49;;;;;;;21.73;11.63;;;16.20;99.90;;;;;;4392581;28;658726;-70
2021/08/11 04:53:37;;;;;;;27.40;12.93;;;16.30;99.90;;;;;;4410312;28;658612;-70
2021/08/11 04:56:26;;;;;;;23.90;12.13;;;16.40;99.90;;;;;;4394933;28;658720;-70
2021/08/11 04:59:13;;;;;;;22.63;12.23;;;16.50;99.90;;;;;;4399999;28;659226;-70
2021/08/11 05:02:01;;;;;;;25.20;13.00;;;16.50;99.90;;;;;;4414110;28;658772;-70
2021/08/11 05:04:48;;;;;;;25.53;12.97;;;16.60;99.90;;;;;;4405269;28;658667;-70
2021/08/11 05:07:36;;;;;;;26.47;12.77;;;16.70;99.90;;;;;;4422181;28;659399;-70
2021/08/11 05:10:24;;;;;;;25.47;12.73;;;16.80;99.90;;;;;;4398683;28;658620;-70
2021/08/11 05:13:14;;;;;;;25.90;12.93;;;16.80;99.90;;;;;;4414427;28;658631;-70
2021/08/11 05:16:02;;;;;;;20.77;11.73;;;16.90;99.90;;;;;;4393715;28;660206;-70
2021/08/11 05:18:50;;;;;;;23.63;10.40;;;17.00;99.90;;;;;;4392750;28;660130;-70
2021/08/11 05:21:37;;;;;;;24.10;10.53;;;17.10;99.90;;;;;;4411025;28;659077;-70
2021/08/11 05:24:25;;;;;;;21.63;10.30;;;17.20;99.90;;;;;;4406525;28;659706;-70
2021/08/11 05:27:14;;;;;;;18.50;9.50;;;17.30;99.90;;;;;;4397402;28;658819;-70
2021/08/11 05:30:04;;;;;;;17.00;9.07;;;17.40;99.90;;;;;;4396202;28;658011;-70
2021/08/11 05:32:52;;;;;;;22.87;9.53;;;17.50;99.90;;;;;;4401287;28;659371;-70
2021/08/11 05:35:39;;;;;;;17.80;9.23;;;17.50;99.90;;;;;;4404453;28;657652;-70
2021/08/11 05:38:27;;;;;;;19.63;8.17;;;17.60;99.90;;;;;;4432321;28;657182;-70
2021/08/11 05:41:14;;;;;;;18.70;8.10;;;17.70;99.90;;;;;;4408266;28;658084;-70
2021/08/11 05:44:02;;;;;;;15.80;6.73;;;17.80;99.90;;;;;;4428343;28;658052;-70
2021/08/11 05:46:51;;;;;;;13.50;6.13;;;17.90;99.90;;;;;;4399926;28;659164;-70
2021/08/11 05:49:39;;;;;;;9.13;5.27;;;18.00;99.90;;;;;;4396829;28;657795;-70
2021/08/11 05:52:27;;;;;;;9.07;5.77;;;18.00;99.90;;;;;;4420688;28;656843;-70
2021/08/11 05:55:14;;;;;;;7.77;5.40;;;18.10;99.90;;;;;;4403980;28;656225;-70
2021/08/11 05:58:02;;;;;;;9.10;4.90;;;18.20;99.90;;;;;;4418631;28;656532;-69
2021/08/11 06:00:49;;;;;;;8.63;4.93;;;18.30;99.90;;;;;;4401901;28;657441;-69
2021/08/11 06:03:38;;;;;;;10.90;4.80;;;18.40;99.90;;;;;;4431670;28;656903;-69
2021/08/11 06:06:26;;;;;;;8.27;4.70;;;18.50;99.90;;;;;;4393470;28;658683;-69
2021/08/11 06:09:14;;;;;;;7.33;3.93;;;18.50;99.90;;;;;;4408783;28;656600;-69
2021/08/11 06:12:01;;;;;;;6.33;3.40;;;18.70;99.90;;;;;;4416820;28;657159;-69
2021/08/11 06:14:49;;;;;;;8.60;4.00;;;18.70;99.90;;;;;;4411638;28;656796;-70
2021/08/11 06:17:44;;;;;;;9.17;3.90;;;18.80;99.90;;;;;;4430897;28;656914;-70
2021/08/11 06:20:33;;;;;;;11.80;4.00;;;18.90;99.90;;;;;;4395459;28;656632;-70
2021/08/11 06:23:21;;;;;;;7.50;3.67;;;19.00;99.90;;;;;;4401207;28;659054;-70
2021/08/11 06:26:09;;;;;;;7.83;3.70;;;19.10;99.90;;;;;;4420476;28;656473;-70
2021/08/11 06:28:56;;;;;;;5.93;3.37;;;19.30;99.90;;;;;;4439773;28;657594;-70
2021/08/11 06:31:44;;;;;;;7.10;4.33;;;19.40;99.90;;;;;;4409883;28;656335;-69
2021/08/11 06:34:31;;;;;;;7.90;3.63;;;19.50;99.90;;;;;;4444160;28;656708;-70
2021/08/11 06:37:20;;;;;;;6.77;4.03;;;19.70;99.90;;;;;;4419507;28;656699;-70
2021/08/11 06:40:09;;;;;;;7.10;3.80;;;19.70;99.90;;;;;;4430812;28;656503;-70
2021/08/11 06:42:57;;;;;;;12.13;3.93;;;19.80;99.90;;;;;;4445588;28;657226;-70
2021/08/11 06:45:44;;;;;;;6.17;3.40;;;19.80;99.90;;;;;;4412964;28;657651;-70
2021/08/11 06:48:32;;;;;;;8.43;4.03;;;19.90;99.90;;;;;;4432831;28;657098;-69
2021/08/11 06:51:20;;;;;;;6.93;3.90;;;20.00;99.90;;;;;;4423955;28;657583;-70
2021/08/11 06:54:12;;;;;;;8.40;3.40;;;20.00;99.90;;;;;;4427194;28;656977;-69
2021/08/11 06:56:59;;;;;;;8.47;3.60;;;20.20;99.90;;;;;;4414127;28;656886;-70
2021/08/11 06:59:48;;;;;;;11.37;4.77;;;20.30;99.90;;;;;;4440844;28;657073;-67
2021/08/11 07:02:36;;;;;;;8.03;4.40;;;20.40;99.90;;;;;;4426952;28;657789;-67
2021/08/11 07:05:23;;;;;;;8.67;4.17;;;20.40;99.90;;;;;;4432102;28;656741;-67
2021/08/11 07:08:11;;;;;;;11.97;5.07;;;20.40;99.90;;;;;;4454039;28;656341;-67
2021/08/11 07:11:00;;;;;;;8.90;5.50;;;20.50;99.90;;;;;;4419151;28;657736;-67
2021/08/11 07:13:48;;;;;;;15.40;5.57;;;20.70;99.90;;;;;;4428770;28;657156;-67
2021/08/11 07:16:37;;;;;;;13.73;5.57;;;20.90;99.90;;;;;;4435182;28;657674;-67
2021/08/11 07:19:24;;;;;;;12.00;4.90;;;20.90;99.90;;;;;;4424921;28;659002;-67
2021/08/11 07:22:12;;;;;;;6.77;3.70;;;20.90;99.90;;;;;;4437430;28;657031;-67
2021/08/11 07:25:00;;;;;;;5.77;3.40;;;21.10;99.90;;;;;;4420153;28;658446;-67
2021/08/11 07:27:49;;;;;;;8.80;3.23;;;21.00;99.90;;;;;;4445196;28;657477;-68
2021/08/11 07:30:36;;;;;;;8.33;3.53;;;21.00;99.90;;;;;;4423406;28;657549;-67
2021/08/11 07:33:24;;;;;;;12.33;4.00;;;21.20;99.90;;;;;;4416882;28;656342;-67
2021/08/11 07:36:12;;;;;;;9.30;3.13;;;21.40;99.90;;;;;;4419193;28;657606;-68
2021/08/11 07:38:59;;;;;;;7.40;3.63;;;21.50;99.90;;;;;;4406764;28;656873;-68
2021/08/11 07:41:47;;;;;;;11.23;4.83;;;21.70;99.90;;;;;;4417614;28;657313;-68
2021/08/11 07:44:36;;;;;;;6.23;3.37;;;21.90;99.90;;;;;;4392261;28;659596;-68
2021/08/11 07:47:24;;;;;;;7.33;3.33;;;22.10;99.90;;;;;;4407255;28;657313;-68
2021/08/11 07:50:12;;;;;;;7.47;3.00;;;22.20;99.90;;;;;;4429586;28;657113;-68
2021/08/11 07:53:00;;;;;;;6.67;3.33;;;22.00;99.90;;;;;;4411131;28;657311;-68
2021/08/11 07:55:48;;;;;;;5.83;2.83;;;22.00;99.90;;;;;;4439724;28;656586;-68
2021/08/11 07:58:35;;;;;;;4.07;2.90;;;22.10;99.90;;;;;;4414184;28;657037;-68
2021/08/11 08:01:24;;;;;;;5.17;2.80;;;22.20;99.90;;;;;;4430791;28;656695;-68
2021/08/11 08:04:12;;;;;;;5.13;3.23;;;22.50;99.90;;;;;;4445274;28;656386;-68
2021/08/11 08:07:03;;;;;;;7.10;3.23;;;22.80;99.90;;;;;;4410251;28;658016;-68
2021/08/11 08:09:51;;;;;;;4.43;3.10;;;22.90;99.90;;;;;;4418493;28;657634;-68
2021/08/11 08:12:40;;;;;;;6.70;3.30;;;22.70;99.90;;;;;;4413451;28;656676;-68
2021/08/11 08:15:29;;;;;;;7.93;3.57;;;22.80;99.90;;;;;;4437555;28;656288;-68
2021/08/11 08:18:22;;;;;;;7.73;3.40;;;22.80;99.90;;;;;;4424898;28;656746;-68
2021/08/11 08:21:10;;;;;;;10.30;4.00;;;22.50;99.90;;;;;;4420845;28;656524;-68
2021/08/11 08:23:57;;;;;;;6.87;3.90;;;22.50;99.90;;;;;;4433479;28;658284;-68
2021/08/11 08:26:45;;;;;;;8.97;4.07;;;22.60;99.90;;;;;;4416658;28;658144;-68
2021/08/11 08:29:33;;;;;;;6.37;3.40;;;22.80;99.90;;;;;;4431423;28;656706;-68
2021/08/11 08:32:21;;;;;;;6.60;3.47;;;23.00;99.90;;;;;;4421427;28;657417;-68
2021/08/11 08:35:11;;;;;;;11.07;4.63;;;23.00;99.90;;;;;;4423187;28;656818;-69
2021/08/11 08:37:58;;;;;;;5.57;3.20;;;23.00;99.90;;;;;;4409032;28;657639;-68
2021/08/11 08:40:47;;;;;;;7.10;3.27;;;23.10;99.90;;;;;;4437263;28;656959;-68
2021/08/11 08:43:34;;;;;;;6.93;3.00;;;23.20;99.90;;;;;;4409682;28;657242;-68
2021/08/11 08:46:22;;;;;;;5.53;3.33;;;23.60;99.90;;;;;;4431276;28;656175;-69
2021/08/11 08:49:10;;;;;;;10.00;3.53;;;23.40;99.90;;;;;;4420394;28;656468;-68
2021/08/11 08:52:00;;;;;;;6.53;3.28;;;23.30;99.90;;;;;;4417626;28;657668;-69
2021/08/11 08:54:47;;;;;;;8.50;4.27;;;23.20;99.90;;;;;;4441033;28;657050;-68
2021/08/11 08:57:35;;;;;;;13.60;3.70;;;23.50;99.90;;;;;;4424887;28;657023;-67
2021/08/11 09:00:23;;;;;;;6.57;3.70;;;23.90;99.90;;;;;;4422512;28;657218;-68
2021/08/11 09:03:11;;;;;;;11.67;4.13;;;24.10;99.90;;;;;;4448918;28;657869;-68
2021/08/11 09:05:59;;;;;;;11.20;3.90;;;23.90;99.90;;;;;;4400135;28;658072;-68
2021/08/11 09:09:04;;;;;;;6.93;4.13;;;23.90;99.90;;;;;;4438731;28;657867;-68
2021/08/11 09:11:53;;;;;;;6.13;3.73;;;24.00;99.90;;;;;;4412758;28;657708;-68
2021/08/11 09:14:45;;;;;;;15.47;4.37;;;24.10;99.90;;;;;;4410176;28;657494;-68
2021/08/11 09:17:34;;;;;;;8.47;3.93;;;24.30;99.90;;;;;;4421452;28;658381;-68
2021/08/11 09:20:25;;;;;;;8.97;4.33;;;24.30;99.90;;;;;;4413434;28;657061;-68
2021/08/11 09:23:14;;;;;;;6.95;3.47;;;24.30;99.90;;;;;;4406223;28;657050;-67
2021/08/11 09:26:04;;;;;;;4.93;3.10;;;24.70;99.90;;;;;;4449701;28;656437;-68
2021/08/11 09:28:53;;;;;;;5.50;3.03;;;24.60;99.90;;;;;;4413839;28;657600;-68
2021/08/11 09:31:40;;;;;;;9.40;3.40;;;24.70;99.90;;;;;;4422080;28;658332;-68
2021/08/11 09:34:28;;;;;;;7.55;3.33;;;25.00;99.90;;;;;;4423245;28;656413;-68
2021/08/11 09:37:16;;;;;;;7.40;3.63;;;25.30;99.90;;;;;;4435008;28;657653;-68
2021/08/11 09:40:10;;;;;;;6.65;3.53;;;25.80;99.90;;;;;;4420968;28;656455;-68
2021/08/11 09:43:01;;;;;;;7.00;3.50;;;26.40;99.90;;;;;;4410128;28;656813;-68
2021/08/11 09:45:49;;;;;;;7.65;3.53;;;26.60;99.90;;;;;;4426886;28;656423;-68
2021/08/11 09:48:43;;;;;;;6.32;4.13;;;26.40;99.90;;;;;;4424202;28;656554;-68
2021/08/11 09:51:31;;;;;;;8.85;4.18;;;26.10;99.90;;;;;;4413230;28;657159;-68
2021/08/11 09:54:19;;;;;;;9.02;4.35;;;26.20;99.90;;;;;;4409692;28;656587;-68
2021/08/11 09:57:07;;;;;;;9.73;3.85;;;25.60;99.90;;;;;;4436883;28;657568;-68
2021/08/11 09:59:59;;;;;;;9.15;3.72;;;25.40;99.90;;;;;;4422748;28;657205;-68
2021/08/11 10:02:47;;;;;;;8.13;4.28;;;25.20;99.90;;;;;;4426977;28;658003;-68
2021/08/11 10:05:37;;;;;;;10.00;4.47;;;25.30;99.90;;;;;;4421788;28;656787;-68
2021/08/11 10:08:32;;;;;;;7.45;4.00;;;25.40;99.90;;;;;;4422029;28;658825;-68
2021/08/11 10:11:37;;;;;;;7.70;3.88;;;25.80;99.90;;;;;;4426418;28;656922;-68
2021/08/11 10:14:26;;;;;;;8.10;4.38;;;25.40;99.90;;;;;;4415760;28;656570;-68
2021/08/11 10:17:15;;;;;;;10.68;4.35;;;25.20;99.90;;;;;;4414238;28;656438;-67
2021/08/11 10:20:04;;;;;;;12.70;3.88;;;25.30;99.90;;;;;;4421982;28;658002;-67
2021/08/11 10:22:52;;;;;;;10.98;3.95;;;25.90;99.90;;;;;;4437562;28;657755;-68
2021/08/11 10:25:39;;;;;;;8.23;3.42;;;26.10;99.90;;;;;;4412762;28;658191;-68
2021/08/11 10:28:27;;;;;;;7.32;2.90;;;25.90;99.90;;;;;;4434616;28;656606;-68
2021/08/11 10:31:15;;;;;;;7.65;3.35;;;25.60;99.90;;;;;;4418247;28;657049;-68
2021/08/11 10:34:04;;;;;;;6.90;3.50;;;25.10;99.90;;;;;;4421603;28;657102;-68
2021/08/11 10:36:51;;;;;;;10.70;4.00;;;25.10;99.90;;;;;;4420379;28;657562;-68
2021/08/11 10:39:39;;;;;;;8.73;3.50;;;25.30;99.90;;;;;;4404156;28;657956;-68
2021/08/11 10:42:27;;;;;;;5.97;3.50;;;25.30;99.90;;;;;;4438732;28;656077;-68
2021/08/11 10:45:14;;;;;;;5.43;3.15;;;25.00;99.90;;;;;;4422499;28;656649;-67
2021/08/11 10:48:02;;;;;;;6.80;3.40;;;24.70;99.90;;;;;;4418553;28;657099;-68
2021/08/11 10:50:51;;;;;;;7.22;3.25;;;24.50;99.90;;;;;;4406505;28;657879;-68
2021/08/11 10:53:39;;;;;;;5.32;3.13;;;24.30;99.90;;;;;;4394137;28;657099;-67
2021/08/11 10:56:42;;;;;;;6.03;2.85;;;23.80;99.90;;;;;;4447954;28;656745;-67
2021/08/11 10:59:46;;;;;;;5.47;2.90;;;24.10;99.90;;;;;;4395245;28;656790;-67
2021/08/11 11:02:48;;;;;;;8.80;3.20;;;24.30;99.90;;;;;;4391402;28;656578;-67
2021/08/11 11:06:04;;;;;;;5.93;3.17;;;24.10;99.90;;;;;;4421384;28;656927;-67
2021/08/11 11:08:52;;;;;;;8.10;3.00;;;23.90;99.90;;;;;;4412393;28;656271;-67
2021/08/11 11:11:42;;;;;;;9.93;3.20;;;24.50;99.90;;;;;;4416590;28;658233;-67
2021/08/11 11:14:57;;;;;;;9.77;2.60;;;25.10;99.90;;;;;;4413258;28;656478;-67
2021/08/11 11:18:12;;;;;;;6.35;2.95;;;25.50;99.90;;;;;;4422167;28;656652;-67
2021/08/11 11:21:34;;;;;;;6.00;2.97;;;25.90;99.90;;;;;;4394955;28;658264;-67
2021/08/11 11:24:49;;;;;;;4.68;2.67;;;26.10;99.90;;;;;;4416099;28;657185;-67
2021/08/11 11:28:02;;;;;;;5.47;2.80;;;25.70;99.90;;;;;;4417023;28;656371;-67
2021/08/11 11:30:49;;;;;;;9.60;2.97;;;25.80;99.90;;;;;;4402651;28;657340;-67
2021/08/11 11:33:38;;;;;;;8.30;3.30;;;26.20;99.90;;;;;;4413892;28;656360;-67
2021/08/11 11:36:26;;;;;;;6.25;2.90;;;26.20;99.90;;;;;;4450375;28;656112;-67
2021/08/11 11:39:15;;;;;;;7.85;3.33;;;26.60;99.90;;;;;;4414317;28;656594;-67
2021/08/11 11:42:25;;;;;;;6.32;2.70;;;27.00;99.70;;;;;;4427920;28;656634;-68
2021/08/11 11:45:14;;;;;;;6.40;3.00;;;26.80;99.10;;;;;;4383416;28;657163;-67
2021/08/11 11:48:05;;;;;;;5.57;3.20;;;26.30;99.70;;;;;;4438708;28;656906;-67
2021/08/11 11:50:54;;;;;;;5.32;3.00;;;25.70;99.90;;;;;;4413073;28;656869;-67
2021/08/11 11:53:41;;;;;;;7.95;3.28;;;25.30;99.90;;;;;;4436868;28;657968;-67
2021/08/11 11:56:32;;;;;;;8.20;3.00;;;25.10;99.90;;;;;;4416882;28;656247;-67
2021/08/11 11:59:19;;;;;;;9.00;3.30;;;25.90;99.90;;;;;;4414040;28;656211;-67
2021/08/11 12:02:14;;;;;;;5.60;2.90;;;26.10;99.90;;;;;;4433802;28;657129;-67
2021/08/11 12:05:03;;;;;;;8.90;3.05;;;26.20;99.90;;;;;;4424450;28;656738;-67
2021/08/11 12:07:51;;;;;;;6.18;2.90;;;25.60;99.00;;;;;;4418353;28;657140;-67
2021/08/11 12:10:39;;;;;;;6.90;2.90;;;25.00;99.90;;;;;;4415701;28;656437;-67
2021/08/11 12:13:32;;;;;;;7.72;3.15;;;24.60;99.90;;;;;;4437472;28;656907;-67
2021/08/11 12:16:20;;;;;;;7.20;3.38;;;24.30;99.90;;;;;;4427510;28;656281;-67
2021/08/11 12:19:12;;;;;;;5.47;3.15;;;24.50;99.90;;;;;;4441696;28;656431;-67
2021/08/11 12:22:00;;;;;;;5.95;3.22;;;24.80;99.90;;;;;;4394516;28;657133;-67
2021/08/11 12:24:48;;;;;;;5.97;3.17;;;25.30;99.90;;;;;;4411678;28;656391;-67
2021/08/11 12:27:36;;;;;;;6.22;2.95;;;25.80;99.90;;;;;;4435107;28;657325;-67
2021/08/11 12:30:26;;;;;;;7.93;3.03;;;26.50;99.90;;;;;;4402193;28;656395;-67
2021/08/11 12:33:14;;;;;;;7.78;3.45;;;26.70;99.90;;;;;;4396281;28;656846;-67
2021/08/11 12:36:03;;;;;;;6.13;3.10;;;26.80;99.90;;;;;;4439063;28;657519;-67
2021/08/11 12:39:10;;;;;;;6.00;3.40;;;26.50;99.60;;;;;;4414596;28;657411;-67
2021/08/11 12:42:02;;;;;;;7.28;3.30;;;25.90;99.90;;;;;;4395934;28;656553;-67
2021/08/11 12:44:54;;;;;;;7.18;3.22;;;25.40;99.70;;;;;;4408428;28;658433;-67
2021/08/11 12:47:43;;;;;;;4.53;2.70;;;25.10;99.90;;;;;;4417353;28;656612;-67
2021/08/11 12:50:31;;;;;;;4.43;2.95;;;24.80;99.90;;;;;;4411584;28;657546;-67
2021/08/11 12:53:23;;;;;;;5.65;2.90;;;24.70;99.90;;;;;;4424183;28;656802;-67
2021/08/11 12:56:12;;;;;;;7.28;3.25;;;24.70;99.90;;;;;;4417777;28;657948;-67
2021/08/11 12:59:01;;;;;;;5.35;3.00;;;25.30;99.90;;;;;;4414756;28;657870;-66
2021/08/11 13:01:49;;;;;;;6.00;3.03;;;26.00;99.90;;;;;;4415394;28;656768;-67
2021/08/11 13:04:38;;;;;;;4.07;2.78;;;26.40;99.90;;;;;;4446547;28;656676;-67
2021/08/11 13:07:26;;;;;;;6.68;2.78;;;26.90;99.90;;;;;;4396678;28;657580;-67
2021/08/11 13:10:14;;;;;;;4.00;2.85;;;27.50;99.90;;;;;;4400488;28;656246;-67
2021/08/11 13:13:17;;;;;;;5.75;2.90;;;27.40;96.50;;;;;;4429645;28;657255;-67
2021/08/11 13:16:08;;;;;;;8.38;3.28;;;27.20;99.70;;;;;;4379625;28;657582;-66
2021/08/11 13:18:55;;;;;;;6.30;2.40;;;26.20;97.90;;;;;;4409510;28;657227;-67
2021/08/11 13:21:44;;;;;;;4.18;2.28;;;26.00;99.90;;;;;;4419092;28;656727;-67
2021/08/11 13:24:32;;;;;;;4.03;2.67;;;26.60;99.10;;;;;;4433916;28;656875;-67
2021/08/11 13:27:20;;;;;;;7.38;2.72;;;26.80;97.20;;;;;;4415698;28;657797;-67
2021/08/11 13:30:09;;;;;;;4.68;2.50;;;26.90;98.60;;;;;;4434688;28;656273;-67
2021/08/11 13:32:57;;;;;;;4.90;2.63;;;27.10;98.20;;;;;;4434856;28;656433;-67
2021/08/11 13:35:44;;;;;;;4.35;2.30;;;27.00;95.40;;;;;;4415683;28;656565;-66
2021/08/11 13:38:33;;;;;;;4.25;2.13;;;26.20;96.80;;;;;;4438784;28;656427;-67
2021/08/11 13:41:21;;;;;;;6.63;2.20;;;25.50;98.60;;;;;;4402232;28;656930;-66
2021/08/11 13:44:11;;;;;;;2.95;1.95;;;25.80;99.30;;;;;;4394476;28;656515;-67
2021/08/11 13:46:59;;;;;;;5.45;2.00;;;26.40;97.60;;;;;;4410380;28;656601;-67
2021/08/11 13:49:46;;;;;;;4.30;2.22;;;26.70;98.10;;;;;;4437633;28;657628;-67
2021/08/11 13:52:34;;;;;;;3.58;1.90;;;27.30;96.00;;;;;;4418634;28;656871;-67
2021/08/11 13:55:23;;;;;;;5.80;2.10;;;27.60;95.20;;;;;;4442582;28;656808;-67
2021/08/11 13:58:11;;;;;;;5.38;2.40;;;27.60;95.90;;;;;;4406268;28;657860;-66
2021/08/11 14:00:58;;;;;;;2.50;1.70;;;28.00;93.20;;;;;;4430834;28;656790;-67
2021/08/11 14:03:46;;;;;;;7.43;1.80;;;27.60;93.40;;;;;;4440055;28;657606;-67
2021/08/11 14:06:33;;;;;;;4.25;2.00;;;27.50;95.00;;;;;;4414495;28;656823;-67
2021/08/11 14:09:21;;;;;;;2.92;1.73;;;27.80;96.50;;;;;;4441157;28;657163;-67
2021/08/11 14:12:11;;;;;;;3.42;2.00;;;28.20;96.20;;;;;;4424026;28;656665;-67
2021/08/11 14:14:59;;;;;;;2.38;1.80;;;28.30;94.20;;;;;;4417018;28;656908;-67
2021/08/11 14:17:47;;;;;;;6.20;1.92;;;28.50;93.30;;;;;;4435073;28;656758;-67
2021/08/11 14:20:34;;;;;;;2.80;1.80;;;28.60;93.90;;;;;;4416145;28;656588;-67
2021/08/11 14:23:22;;;;;;;5.72;1.75;;;28.10;89.80;;;;;;4446570;28;656201;-67